METAR Data
IDs: Format: Raw Decoded Include TAF

Data at: 1454 UTC 10 Aug 2022

KHWD 101442Z 26003KT 10SM BKN021 19/15 A3006 RMK AO2 T01890150
KHWD 101354Z 00000KT 10SM SCT023 18/14 A3005 RMK AO2 SLP184 T01780144
KHWD 101254Z 34003KT 10SM OVC015 18/14 A3004 RMK AO2 SLP180 T01830144
KHWD 101154Z 29003KT 10SM OVC018 18/14 A3002 RMK AO2 SLP176 T01830144 10183 20178 55001
KHWD 101054Z 30004KT 10SM BKN017 OVC022 18/14 A3002 RMK AO2 SLP175 T01780144
KHWD 100954Z 30005KT 10SM BKN020 18/14 A3003 RMK AO2 SLP176 T01780144
KHWD 100854Z 28006KT 10SM OVC018 18/14 A3003 RMK AO2 SLP177 T01780144 58000
KHWD 100754Z 29005KT 10SM BKN016 18/14 A3003 RMK AO2 SLP177 T01780144 402390167
KHWD 100724Z 31004KT 10SM BKN016 18/14 A3003 RMK AO2 T01780144
KHWD 100654Z 31003KT 10SM FEW014 18/14 A3003 RMK AO2 SLP178 T01780144
KHWD 100637Z 29004KT 10SM SCT015 18/14 A3003 RMK AO2 T01780144
KHWD 100620Z 27005KT 10SM BKN015 18/15 A3003 RMK AO2 T01830150
KHWD 100554Z 28004KT 10SM BKN014 18/15 A3003 RMK AO2 SLP177 T01830150 10222 20183 53012
KHWD 100454Z 28009KT 10SM SCT015 18/14 A3002 RMK AO2 SLP174 T01830144
KHWD 100354Z 28006KT 10SM SCT020 18/15 A3000 RMK AO2 SLP166 T01830150
KHWD 100254Z 29011KT 10SM SCT020 19/14 A2999 RMK AO2 SLP165 T01890144 53006
KHWD 100154Z 29014KT 10SM CLR 21/14 A2998 RMK AO2 SLP161 T02060139
KHWD 100054Z 29013KT 10SM CLR 22/14 A2998 RMK AO2 SLP161 T02170139
KHWD 092354Z 28016KT 10SM CLR 22/14 A2997 RMK AO2 SLP159 T02220139 10239 20206 55006
KHWD 092254Z 29016KT 10SM CLR 23/14 A2997 RMK AO2 SLP158 T02330139
KHWD 092154Z 30013G20KT 10SM CLR 23/13 A2998 RMK AO2 SLP161 T02330133
KHWD 092054Z 29012KT 10SM CLR 23/14 A2999 RMK AO2 SLP165 T02330139 58006
KHWD 091954Z 29012G19KT 10SM CLR 22/14 A3000 RMK AO2 SLP169 T02220144
KHWD 091854Z 31011G19KT 10SM CLR 22/14 A3001 RMK AO2 SLP172 T02170144
KHWD 091754Z 26008KT 10SM CLR 20/14 A3001 RMK AO2 SLP171 T02000144 10206 20167 51004
KHWD 091723Z VRB05KT 10SM SCT017 19/14 A3000 RMK AO2 T01940144
KHWD 091654Z 25009G15KT 10SM BKN018 19/14 A3001 RMK AO2 SLP169 T01940144
KHWD 091554Z 27007KT 10SM BKN017 19/14 A3001 RMK AO2 SLP170 T01890139
KHWD 091454Z 28007KT 10SM BKN017 18/14 A3000 RMK AO2 SLP167 T01830139 51010
KHWD 091354Z 26007KT 10SM OVC017 17/14 A2999 RMK AO2 SLP165 T01720139
KHWD 091254Z 27007KT 10SM OVC016 17/14 A2998 RMK AO2 SLP160 T01720139
KHWD 091212Z 28007KT 10SM BKN016 17/14 A2997 RMK AO2 T01670139
KHWD 091154Z 27006KT 10SM BKN014 17/14 A2997 RMK AO2 SLP157 T01670139 10178 20167 55001
KHWD 091124Z 28007KT 10SM BKN015 17/14 A2996 RMK AO2 T01720144
KHWD 091054Z 27007KT 10SM OVC013 17/14 A2997 RMK AO2 SLP156 T01720144
KHWD 090954Z 28009KT 10SM OVC013 18/14 A2997 RMK AO2 SLP157 T01780144
KHWD 090854Z 28006KT 10SM OVC014 18/14 A2997 RMK AO2 SLP158 T01780144 58003
KHWD 090849Z 27007KT 10SM OVC014 18/14 A2997 RMK AO2
KHWD 090821Z 29004KT 10SM OVC015 18/14 A2998 RMK AO2 T01780144
KHWD 090812Z 29007KT 10SM OVC013 18/15 A2998 RMK AO2 T01780150
KHWD 090754Z 29005KT 10SM OVC015 18/15 A2998 RMK AO2 SLP162 T01780150 402330161
KHWD 090738Z 28005KT 10SM BKN015 18/15 A2998 RMK AO2 T01780150
KHWD 090723Z 27005KT 10SM SCT013 17/14 A2999 RMK AO2 T01720144
KHWD 090654Z 28005KT 10SM OVC014 18/15 A2998 RMK AO2 SLP161 T01780150
KHWD 090639Z 25006KT 10SM BKN014 18/15 A2998 RMK AO2 T01780150
KHWD 090624Z 27005KT 10SM BKN016 18/15 A2998 RMK AO2 T01780150
KHWD 090554Z 30010KT 10SM CLR 18/14 A2999 RMK AO2 SLP162 T01780144 10222 20178 51007
KHWD 090454Z 28007KT 10SM CLR 18/14 A2998 RMK AO2 SLP161 T01830144
KHWD 090354Z 29011KT 10SM FEW014 18/14 A2997 RMK AO2 SLP158 T01830144